sensor_id;sensor_type;location;lat;lon;timestamp;P1;durP1;ratioP1;P2;durP2;ratioP2
74849;SDS011;63397;47.480;19.238;2023-01-05T00:00:37;25.63;;;11.20;;
74849;SDS011;63397;47.480;19.238;2023-01-05T00:03:40;28.17;;;11.45;;
74849;SDS011;63397;47.480;19.238;2023-01-05T00:06:42;26.13;;;11.38;;
74849;SDS011;63397;47.480;19.238;2023-01-05T00:09:44;25.00;;;11.20;;
74849;SDS011;63397;47.480;19.238;2023-01-05T00:12:47;26.98;;;10.95;;
74849;SDS011;63397;47.480;19.238;2023-01-05T00:16:12;22.77;;;10.53;;
74849;SDS011;63397;47.480;19.238;2023-01-05T00:19:33;25.33;;;11.52;;
74849;SDS011;63397;47.480;19.238;2023-01-05T00:22:54;23.73;;;10.95;;
74849;SDS011;63397;47.480;19.238;2023-01-05T00:25:56;27.55;;;11.40;;
74849;SDS011;63397;47.480;19.238;2023-01-05T00:28:58;27.83;;;11.27;;
74849;SDS011;63397;47.480;19.238;2023-01-05T00:32:00;25.80;;;11.50;;
74849;SDS011;63397;47.480;19.238;2023-01-05T00:35:03;26.80;;;10.82;;
74849;SDS011;63397;47.480;19.238;2023-01-05T00:38:06;27.08;;;11.60;;
74849;SDS011;63397;47.480;19.238;2023-01-05T00:41:08;26.88;;;11.75;;
74849;SDS011;63397;47.480;19.238;2023-01-05T00:44:10;27.25;;;11.30;;
74849;SDS011;63397;47.480;19.238;2023-01-05T00:47:13;27.00;;;10.97;;
74849;SDS011;63397;47.480;19.238;2023-01-05T00:50:16;27.20;;;11.77;;
74849;SDS011;63397;47.480;19.238;2023-01-05T00:53:18;27.42;;;11.50;;
74849;SDS011;63397;47.480;19.238;2023-01-05T00:56:20;22.42;;;10.27;;
74849;SDS011;63397;47.480;19.238;2023-01-05T00:59:23;23.40;;;9.98;;
74849;SDS011;63397;47.480;19.238;2023-01-05T01:02:25;22.37;;;10.20;;
74849;SDS011;63397;47.480;19.238;2023-01-05T01:05:28;25.98;;;10.35;;
74849;SDS011;63397;47.480;19.238;2023-01-05T01:08:31;25.50;;;9.68;;
74849;SDS011;63397;47.480;19.238;2023-01-05T01:11:33;27.75;;;10.90;;
74849;SDS011;63397;47.480;19.238;2023-01-05T01:14:35;24.73;;;10.98;;
74849;SDS011;63397;47.480;19.238;2023-01-05T01:17:37;27.10;;;10.60;;
74849;SDS011;63397;47.480;19.238;2023-01-05T01:20:40;22.38;;;10.50;;
74849;SDS011;63397;47.480;19.238;2023-01-05T01:23:42;24.65;;;11.18;;
74849;SDS011;63397;47.480;19.238;2023-01-05T01:26:44;30.13;;;11.13;;
74849;SDS011;63397;47.480;19.238;2023-01-05T01:29:47;24.38;;;10.13;;
74849;SDS011;63397;47.480;19.238;2023-01-05T01:32:50;26.90;;;10.53;;
74849;SDS011;63397;47.480;19.238;2023-01-05T01:35:52;26.42;;;9.85;;
74849;SDS011;63397;47.480;19.238;2023-01-05T01:38:54;24.05;;;10.63;;
74849;SDS011;63397;47.480;19.238;2023-01-05T01:41:57;27.77;;;10.80;;
74849;SDS011;63397;47.480;19.238;2023-01-05T01:45:00;25.92;;;10.20;;
74849;SDS011;63397;47.480;19.238;2023-01-05T01:48:11;21.53;;;9.63;;
74849;SDS011;63397;47.480;19.238;2023-01-05T01:51:19;25.08;;;9.93;;
74849;SDS011;63397;47.480;19.238;2023-01-05T01:54:24;26.15;;;10.27;;
74849;SDS011;63397;47.480;19.238;2023-01-05T01:57:26;26.30;;;10.30;;
74849;SDS011;63397;47.480;19.238;2023-01-05T02:00:29;26.40;;;10.20;;
74849;SDS011;63397;47.480;19.238;2023-01-05T02:03:31;24.23;;;10.80;;
74849;SDS011;63397;47.480;19.238;2023-01-05T02:06:34;26.23;;;10.85;;
74849;SDS011;63397;47.480;19.238;2023-01-05T02:09:36;24.40;;;9.15;;
74849;SDS011;63397;47.480;19.238;2023-01-05T02:18:55;26.20;;;10.50;;
74849;SDS011;63397;47.480;19.238;2023-01-05T02:31:54;26.02;;;11.70;;
74849;SDS011;63397;47.480;19.238;2023-01-05T02:41:22;25.27;;;11.30;;
74849;SDS011;63397;47.480;19.238;2023-01-05T02:44:26;25.30;;;10.27;;
74849;SDS011;63397;47.480;19.238;2023-01-05T02:47:42;25.48;;;11.05;;
74849;SDS011;63397;47.480;19.238;2023-01-05T02:50:52;26.97;;;10.83;;
74849;SDS011;63397;47.480;19.238;2023-01-05T02:54:00;28.38;;;10.73;;
74849;SDS011;63397;47.480;19.238;2023-01-05T02:57:05;24.05;;;10.32;;
74849;SDS011;63397;47.480;19.238;2023-01-05T03:00:10;23.58;;;10.25;;
74849;SDS011;63397;47.480;19.238;2023-01-05T03:03:21;24.27;;;10.70;;
74849;SDS011;63397;47.480;19.238;2023-01-05T03:09:33;22.83;;;10.38;;
74849;SDS011;63397;47.480;19.238;2023-01-05T03:12:43;21.48;;;10.52;;
74849;SDS011;63397;47.480;19.238;2023-01-05T03:16:06;22.90;;;10.48;;
74849;SDS011;63397;47.480;19.238;2023-01-05T03:19:10;24.83;;;10.85;;
74849;SDS011;63397;47.480;19.238;2023-01-05T03:22:32;27.73;;;11.03;;
74849;SDS011;63397;47.480;19.238;2023-01-05T03:25:56;24.65;;;10.52;;
74849;SDS011;63397;47.480;19.238;2023-01-05T03:29:17;22.52;;;10.05;;
74849;SDS011;63397;47.480;19.238;2023-01-05T03:32:41;24.50;;;10.80;;
74849;SDS011;63397;47.480;19.238;2023-01-05T03:36:04;26.75;;;10.70;;
74849;SDS011;63397;47.480;19.238;2023-01-05T03:39:07;24.30;;;10.60;;
74849;SDS011;63397;47.480;19.238;2023-01-05T03:42:12;24.45;;;10.75;;
74849;SDS011;63397;47.480;19.238;2023-01-05T03:45:15;26.88;;;11.02;;
74849;SDS011;63397;47.480;19.238;2023-01-05T03:48:18;21.67;;;9.77;;
74849;SDS011;63397;47.480;19.238;2023-01-05T03:51:22;26.77;;;11.23;;
74849;SDS011;63397;47.480;19.238;2023-01-05T03:54:24;26.87;;;11.40;;
74849;SDS011;63397;47.480;19.238;2023-01-05T03:57:27;28.13;;;11.85;;
74849;SDS011;63397;47.480;19.238;2023-01-05T04:00:30;25.45;;;10.23;;
74849;SDS011;63397;47.480;19.238;2023-01-05T04:03:37;24.13;;;10.32;;
74849;SDS011;63397;47.480;19.238;2023-01-05T04:06:42;25.75;;;10.98;;
74849;SDS011;63397;47.480;19.238;2023-01-05T04:09:46;27.50;;;10.83;;
74849;SDS011;63397;47.480;19.238;2023-01-05T04:12:48;25.25;;;10.35;;
74849;SDS011;63397;47.480;19.238;2023-01-05T04:15:52;22.30;;;10.75;;
74849;SDS011;63397;47.480;19.238;2023-01-05T04:18:54;22.02;;;10.32;;
74849;SDS011;63397;47.480;19.238;2023-01-05T04:21:57;26.52;;;10.85;;
74849;SDS011;63397;47.480;19.238;2023-01-05T04:25:02;23.73;;;10.63;;
74849;SDS011;63397;47.480;19.238;2023-01-05T04:28:06;25.27;;;10.88;;
74849;SDS011;63397;47.480;19.238;2023-01-05T04:31:10;25.45;;;11.40;;
74849;SDS011;63397;47.480;19.238;2023-01-05T04:34:12;25.25;;;10.80;;
74849;SDS011;63397;47.480;19.238;2023-01-05T04:37:15;24.90;;;10.98;;
74849;SDS011;63397;47.480;19.238;2023-01-05T04:40:18;26.73;;;11.73;;
74849;SDS011;63397;47.480;19.238;2023-01-05T04:43:25;23.83;;;10.25;;
74849;SDS011;63397;47.480;19.238;2023-01-05T04:46:29;23.90;;;10.88;;
74849;SDS011;63397;47.480;19.238;2023-01-05T04:49:32;26.63;;;11.93;;
74849;SDS011;63397;47.480;19.238;2023-01-05T04:52:35;27.52;;;10.82;;
74849;SDS011;63397;47.480;19.238;2023-01-05T04:55:38;22.87;;;10.83;;
74849;SDS011;63397;47.480;19.238;2023-01-05T04:58:41;24.25;;;10.80;;
74849;SDS011;63397;47.480;19.238;2023-01-05T05:01:43;24.65;;;10.20;;
74849;SDS011;63397;47.480;19.238;2023-01-05T05:04:47;24.10;;;10.07;;
74849;SDS011;63397;47.480;19.238;2023-01-05T05:07:50;24.27;;;9.88;;
74849;SDS011;63397;47.480;19.238;2023-01-05T05:10:53;23.47;;;10.57;;
74849;SDS011;63397;47.480;19.238;2023-01-05T05:13:55;23.05;;;10.02;;
74849;SDS011;63397;47.480;19.238;2023-01-05T05:16:58;27.17;;;11.25;;
74849;SDS011;63397;47.480;19.238;2023-01-05T05:20:03;25.05;;;10.23;;
74849;SDS011;63397;47.480;19.238;2023-01-05T05:23:06;25.73;;;10.77;;
74849;SDS011;63397;47.480;19.238;2023-01-05T05:26:09;21.13;;;10.00;;
74849;SDS011;63397;47.480;19.238;2023-01-05T05:29:12;22.42;;;10.18;;
74849;SDS011;63397;47.480;19.238;2023-01-05T05:32:14;21.90;;;10.35;;
74849;SDS011;63397;47.480;19.238;2023-01-05T05:35:16;24.05;;;9.95;;
74849;SDS011;63397;47.480;19.238;2023-01-05T05:38:19;21.73;;;9.50;;
74849;SDS011;63397;47.480;19.238;2023-01-05T05:41:21;26.00;;;9.90;;
74849;SDS011;63397;47.480;19.238;2023-01-05T05:44:23;22.48;;;9.57;;
74849;SDS011;63397;47.480;19.238;2023-01-05T05:47:25;20.65;;;9.68;;
74849;SDS011;63397;47.480;19.238;2023-01-05T05:50:28;22.38;;;10.05;;
74849;SDS011;63397;47.480;19.238;2023-01-05T05:53:32;22.33;;;9.80;;
74849;SDS011;63397;47.480;19.238;2023-01-05T05:56:35;24.63;;;10.43;;
74849;SDS011;63397;47.480;19.238;2023-01-05T05:59:37;22.40;;;10.05;;
74849;SDS011;63397;47.480;19.238;2023-01-05T06:02:40;21.00;;;9.23;;
74849;SDS011;63397;47.480;19.238;2023-01-05T06:05:43;20.70;;;9.32;;
74849;SDS011;63397;47.480;19.238;2023-01-05T06:08:45;23.55;;;9.73;;
74849;SDS011;63397;47.480;19.238;2023-01-05T06:11:47;23.33;;;10.63;;
74849;SDS011;63397;47.480;19.238;2023-01-05T06:14:50;20.13;;;8.45;;
74849;SDS011;63397;47.480;19.238;2023-01-05T06:17:52;20.17;;;8.82;;
74849;SDS011;63397;47.480;19.238;2023-01-05T06:20:55;22.58;;;9.25;;
74849;SDS011;63397;47.480;19.238;2023-01-05T06:24:02;20.60;;;9.13;;
74849;SDS011;63397;47.480;19.238;2023-01-05T06:27:05;26.00;;;10.10;;
74849;SDS011;63397;47.480;19.238;2023-01-05T06:30:07;26.73;;;10.10;;
74849;SDS011;63397;47.480;19.238;2023-01-05T06:33:09;23.65;;;9.68;;
74849;SDS011;63397;47.480;19.238;2023-01-05T06:36:12;26.83;;;10.95;;
74849;SDS011;63397;47.480;19.238;2023-01-05T06:39:14;25.35;;;10.43;;
74849;SDS011;63397;47.480;19.238;2023-01-05T06:42:17;30.07;;;11.30;;
74849;SDS011;63397;47.480;19.238;2023-01-05T06:45:24;28.67;;;11.10;;
74849;SDS011;63397;47.480;19.238;2023-01-05T06:48:26;24.52;;;10.25;;
74849;SDS011;63397;47.480;19.238;2023-01-05T06:51:29;27.70;;;10.82;;
74849;SDS011;63397;47.480;19.238;2023-01-05T06:54:31;23.63;;;10.23;;
74849;SDS011;63397;47.480;19.238;2023-01-05T06:57:33;24.40;;;10.20;;
74849;SDS011;63397;47.480;19.238;2023-01-05T07:00:37;25.70;;;11.48;;
74849;SDS011;63397;47.480;19.238;2023-01-05T07:03:39;24.73;;;10.50;;
74849;SDS011;63397;47.480;19.238;2023-01-05T07:06:42;23.73;;;10.07;;
74849;SDS011;63397;47.480;19.238;2023-01-05T07:09:44;28.10;;;11.93;;
74849;SDS011;63397;47.480;19.238;2023-01-05T07:12:50;26.67;;;11.07;;
74849;SDS011;63397;47.480;19.238;2023-01-05T07:15:52;26.15;;;10.80;;
74849;SDS011;63397;47.480;19.238;2023-01-05T07:18:55;28.52;;;12.07;;
74849;SDS011;63397;47.480;19.238;2023-01-05T07:21:57;25.70;;;10.48;;
74849;SDS011;63397;47.480;19.238;2023-01-05T07:24:59;28.88;;;11.57;;
74849;SDS011;63397;47.480;19.238;2023-01-05T07:28:02;25.13;;;10.67;;
74849;SDS011;63397;47.480;19.238;2023-01-05T07:31:04;26.38;;;11.80;;
74849;SDS011;63397;47.480;19.238;2023-01-05T07:34:08;26.90;;;12.00;;
74849;SDS011;63397;47.480;19.238;2023-01-05T07:37:11;27.55;;;11.00;;
74849;SDS011;63397;47.480;19.238;2023-01-05T07:40:13;25.23;;;11.40;;
74849;SDS011;63397;47.480;19.238;2023-01-05T07:43:16;27.83;;;11.90;;
74849;SDS011;63397;47.480;19.238;2023-01-05T07:46:18;27.48;;;11.40;;
74849;SDS011;63397;47.480;19.238;2023-01-05T07:49:20;28.48;;;11.45;;
74849;SDS011;63397;47.480;19.238;2023-01-05T07:52:23;26.60;;;11.82;;
74849;SDS011;63397;47.480;19.238;2023-01-05T07:55:25;24.77;;;11.35;;
74849;SDS011;63397;47.480;19.238;2023-01-05T07:58:27;28.03;;;10.80;;
74849;SDS011;63397;47.480;19.238;2023-01-05T08:01:30;26.65;;;11.30;;
74849;SDS011;63397;47.480;19.238;2023-01-05T08:04:32;24.02;;;10.13;;
74849;SDS011;63397;47.480;19.238;2023-01-05T08:07:35;27.08;;;11.30;;
74849;SDS011;63397;47.480;19.238;2023-01-05T08:10:41;26.92;;;11.32;;
74849;SDS011;63397;47.480;19.238;2023-01-05T08:13:44;23.27;;;9.57;;
74849;SDS011;63397;47.480;19.238;2023-01-05T08:17:02;21.02;;;10.10;;
74849;SDS011;63397;47.480;19.238;2023-01-05T08:20:04;24.33;;;10.68;;
74849;SDS011;63397;47.480;19.238;2023-01-05T08:23:07;21.77;;;10.15;;
74849;SDS011;63397;47.480;19.238;2023-01-05T08:26:10;24.85;;;10.98;;
74849;SDS011;63397;47.480;19.238;2023-01-05T08:29:12;26.03;;;10.97;;
74849;SDS011;63397;47.480;19.238;2023-01-05T08:32:15;28.00;;;11.77;;
74849;SDS011;63397;47.480;19.238;2023-01-05T08:35:17;24.77;;;11.25;;
74849;SDS011;63397;47.480;19.238;2023-01-05T08:38:20;23.35;;;11.20;;
74849;SDS011;63397;47.480;19.238;2023-01-05T08:41:24;25.00;;;11.23;;
74849;SDS011;63397;47.480;19.238;2023-01-05T08:44:26;22.73;;;10.67;;
74849;SDS011;63397;47.480;19.238;2023-01-05T08:47:28;23.75;;;11.18;;
74849;SDS011;63397;47.480;19.238;2023-01-05T08:50:31;22.90;;;11.00;;
74849;SDS011;63397;47.480;19.238;2023-01-05T08:53:33;26.58;;;11.18;;
74849;SDS011;63397;47.480;19.238;2023-01-05T08:56:37;22.52;;;10.43;;
74849;SDS011;63397;47.480;19.238;2023-01-05T08:59:40;25.17;;;10.97;;
74849;SDS011;63397;47.480;19.238;2023-01-05T09:02:43;24.33;;;10.15;;
74849;SDS011;63397;47.480;19.238;2023-01-05T09:05:45;23.17;;;11.13;;
74849;SDS011;63397;47.480;19.238;2023-01-05T09:08:48;25.38;;;11.52;;
74849;SDS011;63397;47.480;19.238;2023-01-05T09:11:50;25.15;;;10.73;;
74849;SDS011;63397;47.480;19.238;2023-01-05T09:14:53;21.70;;;10.67;;
74849;SDS011;63397;47.480;19.238;2023-01-05T09:17:55;25.52;;;11.55;;
74849;SDS011;63397;47.480;19.238;2023-01-05T09:20:58;24.88;;;10.93;;
74849;SDS011;63397;47.480;19.238;2023-01-05T09:24:00;27.38;;;11.18;;
74849;SDS011;63397;47.480;19.238;2023-01-05T09:27:02;24.23;;;12.00;;
74849;SDS011;63397;47.480;19.238;2023-01-05T09:30:06;25.37;;;11.20;;
74849;SDS011;63397;47.480;19.238;2023-01-05T09:33:09;24.75;;;11.02;;
74849;SDS011;63397;47.480;19.238;2023-01-05T09:36:12;26.60;;;11.65;;
74849;SDS011;63397;47.480;19.238;2023-01-05T09:39:14;24.75;;;12.02;;
74849;SDS011;63397;47.480;19.238;2023-01-05T09:42:18;24.67;;;11.57;;
74849;SDS011;63397;47.480;19.238;2023-01-05T09:45:25;25.87;;;11.60;;
74849;SDS011;63397;47.480;19.238;2023-01-05T09:48:28;25.77;;;11.75;;
74849;SDS011;63397;47.480;19.238;2023-01-05T09:51:36;24.40;;;10.80;;
74849;SDS011;63397;47.480;19.238;2023-01-05T09:54:39;21.92;;;10.75;;
74849;SDS011;63397;47.480;19.238;2023-01-05T09:57:42;24.42;;;11.05;;
74849;SDS011;63397;47.480;19.238;2023-01-05T10:01:06;22.40;;;10.87;;
74849;SDS011;63397;47.480;19.238;2023-01-05T10:04:10;25.08;;;11.25;;
74849;SDS011;63397;47.480;19.238;2023-01-05T10:07:33;24.80;;;11.40;;
74849;SDS011;63397;47.480;19.238;2023-01-05T10:10:52;25.98;;;11.65;;
74849;SDS011;63397;47.480;19.238;2023-01-05T10:14:15;24.33;;;11.65;;
74849;SDS011;63397;47.480;19.238;2023-01-05T10:17:19;22.43;;;10.67;;
74849;SDS011;63397;47.480;19.238;2023-01-05T10:24:16;21.00;;;10.15;;
74849;SDS011;63397;47.480;19.238;2023-01-05T10:31:11;21.50;;;9.95;;
74849;SDS011;63397;47.480;19.238;2023-01-05T10:33:59;15.90;;;8.43;;
74849;SDS011;63397;47.480;19.238;2023-01-05T10:46:45;24.27;;;10.27;;
74849;SDS011;63397;47.480;19.238;2023-01-05T10:49:53;25.77;;;11.60;;
74849;SDS011;63397;47.480;19.238;2023-01-05T10:52:57;21.73;;;11.00;;
74849;SDS011;63397;47.480;19.238;2023-01-05T10:56:04;27.00;;;12.27;;
74849;SDS011;63397;47.480;19.238;2023-01-05T10:59:11;24.10;;;11.90;;
74849;SDS011;63397;47.480;19.238;2023-01-05T11:02:13;25.40;;;11.30;;
74849;SDS011;63397;47.480;19.238;2023-01-05T11:08:24;28.42;;;13.10;;
74849;SDS011;63397;47.480;19.238;2023-01-05T11:11:28;30.85;;;13.30;;
74849;SDS011;63397;47.480;19.238;2023-01-05T11:14:35;32.67;;;12.77;;
74849;SDS011;63397;47.480;19.238;2023-01-05T11:17:42;31.30;;;14.27;;
74849;SDS011;63397;47.480;19.238;2023-01-05T11:24:24;34.58;;;14.50;;
74849;SDS011;63397;47.480;19.238;2023-01-05T11:27:26;28.75;;;12.50;;
74849;SDS011;63397;47.480;19.238;2023-01-05T11:30:29;30.33;;;11.80;;
74849;SDS011;63397;47.480;19.238;2023-01-05T11:33:33;24.38;;;10.90;;
74849;SDS011;63397;47.480;19.238;2023-01-05T11:36:36;29.37;;;11.57;;
74849;SDS011;63397;47.480;19.238;2023-01-05T11:42:47;26.60;;;11.30;;
74849;SDS011;63397;47.480;19.238;2023-01-05T11:45:51;25.02;;;11.30;;
74849;SDS011;63397;47.480;19.238;2023-01-05T11:48:55;18.38;;;8.23;;
74849;SDS011;63397;47.480;19.238;2023-01-05T11:51:58;21.73;;;8.07;;
74849;SDS011;63397;47.480;19.238;2023-01-05T12:08:04;10.47;;;3.80;;
74849;SDS011;63397;47.480;19.238;2023-01-05T12:20:37;6.72;;;2.30;;
74849;SDS011;63397;47.480;19.238;2023-01-05T12:37:17;3.80;;;1.45;;
74849;SDS011;63397;47.480;19.238;2023-01-05T12:40:29;4.80;;;1.30;;
74849;SDS011;63397;47.480;19.238;2023-01-05T12:46:48;4.50;;;1.63;;
74849;SDS011;63397;47.480;19.238;2023-01-05T12:50:01;3.17;;;1.00;;
74849;SDS011;63397;47.480;19.238;2023-01-05T12:59:35;4.43;;;1.30;;
74849;SDS011;63397;47.480;19.238;2023-01-05T13:02:42;3.95;;;1.00;;
74849;SDS011;63397;47.480;19.238;2023-01-05T13:08:56;6.32;;;1.60;;
74849;SDS011;63397;47.480;19.238;2023-01-05T13:12:03;10.83;;;2.20;;
74849;SDS011;63397;47.480;19.238;2023-01-05T13:18:14;4.38;;;1.10;;
74849;SDS011;63397;47.480;19.238;2023-01-05T13:21:19;3.60;;;1.17;;
74849;SDS011;63397;47.480;19.238;2023-01-05T13:27:29;4.87;;;1.50;;
74849;SDS011;63397;47.480;19.238;2023-01-05T13:30:35;6.70;;;2.10;;
74849;SDS011;63397;47.480;19.238;2023-01-05T13:33:58;7.05;;;2.50;;
74849;SDS011;63397;47.480;19.238;2023-01-05T13:40:26;9.30;;;3.58;;
74849;SDS011;63397;47.480;19.238;2023-01-05T13:50:06;9.98;;;3.85;;
74849;SDS011;63397;47.480;19.238;2023-01-05T13:53:14;9.85;;;3.60;;
74849;SDS011;63397;47.480;19.238;2023-01-05T13:56:26;8.57;;;3.55;;
74849;SDS011;63397;47.480;19.238;2023-01-05T13:59:30;8.43;;;3.50;;
74849;SDS011;63397;47.480;19.238;2023-01-05T14:02:43;7.43;;;3.67;;
74849;SDS011;63397;47.480;19.238;2023-01-05T14:08:54;12.40;;;3.88;;
74849;SDS011;63397;47.480;19.238;2023-01-05T14:22:20;12.15;;;5.47;;
74849;SDS011;63397;47.480;19.238;2023-01-05T14:31:34;11.90;;;4.40;;
74849;SDS011;63397;47.480;19.238;2023-01-05T14:34:43;12.20;;;4.30;;
74849;SDS011;63397;47.480;19.238;2023-01-05T14:37:51;11.13;;;4.50;;
74849;SDS011;63397;47.480;19.238;2023-01-05T14:40:53;10.05;;;3.90;;
74849;SDS011;63397;47.480;19.238;2023-01-05T14:43:58;10.48;;;3.95;;
74849;SDS011;63397;47.480;19.238;2023-01-05T14:47:02;10.27;;;4.07;;
74849;SDS011;63397;47.480;19.238;2023-01-05T14:50:06;7.80;;;2.92;;
74849;SDS011;63397;47.480;19.238;2023-01-05T14:53:38;6.53;;;2.70;;
74849;SDS011;63397;47.480;19.238;2023-01-05T14:56:40;5.43;;;2.40;;
74849;SDS011;63397;47.480;19.238;2023-01-05T15:00:11;9.05;;;2.63;;
74849;SDS011;63397;47.480;19.238;2023-01-05T15:10:03;7.70;;;2.97;;
74849;SDS011;63397;47.480;19.238;2023-01-05T15:19:39;10.90;;;2.60;;
74849;SDS011;63397;47.480;19.238;2023-01-05T15:32:31;12.40;;;3.20;;
74849;SDS011;63397;47.480;19.238;2023-01-05T15:35:39;8.47;;;2.90;;
74849;SDS011;63397;47.480;19.238;2023-01-05T15:38:43;6.90;;;2.40;;
74849;SDS011;63397;47.480;19.238;2023-01-05T15:41:45;6.00;;;2.58;;
74849;SDS011;63397;47.480;19.238;2023-01-05T15:44:49;5.93;;;2.22;;
74849;SDS011;63397;47.480;19.238;2023-01-05T15:47:53;6.65;;;1.88;;
74849;SDS011;63397;47.480;19.238;2023-01-05T15:50:56;6.97;;;2.23;;
74849;SDS011;63397;47.480;19.238;2023-01-05T15:54:00;6.88;;;2.50;;
74849;SDS011;63397;47.480;19.238;2023-01-05T15:57:16;6.85;;;2.47;;
74849;SDS011;63397;47.480;19.238;2023-01-05T16:00:21;9.93;;;3.20;;
74849;SDS011;63397;47.480;19.238;2023-01-05T16:03:26;8.88;;;2.63;;
74849;SDS011;63397;47.480;19.238;2023-01-05T16:06:28;8.03;;;3.10;;
74849;SDS011;63397;47.480;19.238;2023-01-05T16:09:32;10.13;;;2.92;;
74849;SDS011;63397;47.480;19.238;2023-01-05T16:12:35;8.68;;;3.35;;
74849;SDS011;63397;47.480;19.238;2023-01-05T16:15:37;9.77;;;4.00;;
74849;SDS011;63397;47.480;19.238;2023-01-05T16:18:44;9.43;;;3.65;;
74849;SDS011;63397;47.480;19.238;2023-01-05T16:21:49;8.33;;;3.37;;
74849;SDS011;63397;47.480;19.238;2023-01-05T16:24:58;9.90;;;3.80;;
74849;SDS011;63397;47.480;19.238;2023-01-05T16:28:02;11.35;;;3.40;;
74849;SDS011;63397;47.480;19.238;2023-01-05T16:31:11;7.25;;;2.47;;
74849;SDS011;63397;47.480;19.238;2023-01-05T16:34:15;10.13;;;2.50;;
74849;SDS011;63397;47.480;19.238;2023-01-05T16:37:17;5.63;;;2.03;;
74849;SDS011;63397;47.480;19.238;2023-01-05T16:40:20;7.25;;;1.80;;
74849;SDS011;63397;47.480;19.238;2023-01-05T16:49:35;6.10;;;2.20;;
74849;SDS011;63397;47.480;19.238;2023-01-05T16:52:55;6.90;;;1.90;;
74849;SDS011;63397;47.480;19.238;2023-01-05T16:55:58;7.40;;;2.00;;
74849;SDS011;63397;47.480;19.238;2023-01-05T16:59:03;6.60;;;2.17;;
74849;SDS011;63397;47.480;19.238;2023-01-05T17:05:27;8.55;;;1.90;;
74849;SDS011;63397;47.480;19.238;2023-01-05T17:08:30;5.37;;;1.60;;
74849;SDS011;63397;47.480;19.238;2023-01-05T17:11:36;5.72;;;1.45;;
74849;SDS011;63397;47.480;19.238;2023-01-05T17:14:39;10.55;;;2.03;;
74849;SDS011;63397;47.480;19.238;2023-01-05T17:17:42;5.53;;;1.70;;
74849;SDS011;63397;47.480;19.238;2023-01-05T17:20:44;7.00;;;1.75;;
74849;SDS011;63397;47.480;19.238;2023-01-05T17:23:48;5.10;;;1.60;;
74849;SDS011;63397;47.480;19.238;2023-01-05T17:26:51;4.82;;;1.70;;
74849;SDS011;63397;47.480;19.238;2023-01-05T17:29:53;10.63;;;1.92;;
74849;SDS011;63397;47.480;19.238;2023-01-05T17:33:00;4.15;;;1.15;;
74849;SDS011;63397;47.480;19.238;2023-01-05T17:36:04;5.47;;;1.50;;
74849;SDS011;63397;47.480;19.238;2023-01-05T17:39:06;4.13;;;1.30;;
74849;SDS011;63397;47.480;19.238;2023-01-05T17:42:09;6.38;;;1.60;;
74849;SDS011;63397;47.480;19.238;2023-01-05T17:45:30;5.40;;;1.70;;
74849;SDS011;63397;47.480;19.238;2023-01-05T17:48:33;6.57;;;1.73;;
74849;SDS011;63397;47.480;19.238;2023-01-05T17:51:35;7.25;;;1.75;;
74849;SDS011;63397;47.480;19.238;2023-01-05T17:54:37;6.30;;;1.53;;
74849;SDS011;63397;47.480;19.238;2023-01-05T17:57:42;5.72;;;1.50;;
74849;SDS011;63397;47.480;19.238;2023-01-05T18:00:44;7.43;;;1.50;;
74849;SDS011;63397;47.480;19.238;2023-01-05T18:03:51;7.90;;;1.27;;
74849;SDS011;63397;47.480;19.238;2023-01-05T18:06:53;3.47;;;1.05;;
74849;SDS011;63397;47.480;19.238;2023-01-05T18:09:56;5.33;;;1.10;;
74849;SDS011;63397;47.480;19.238;2023-01-05T18:12:58;6.60;;;1.50;;
74849;SDS011;63397;47.480;19.238;2023-01-05T18:16:05;5.45;;;1.23;;
74849;SDS011;63397;47.480;19.238;2023-01-05T18:19:07;3.92;;;1.10;;
74849;SDS011;63397;47.480;19.238;2023-01-05T18:22:10;4.07;;;1.08;;
74849;SDS011;63397;47.480;19.238;2023-01-05T18:25:12;4.07;;;0.90;;
74849;SDS011;63397;47.480;19.238;2023-01-05T18:28:15;5.78;;;1.00;;
74849;SDS011;63397;47.480;19.238;2023-01-05T18:31:18;2.90;;;0.82;;
74849;SDS011;63397;47.480;19.238;2023-01-05T18:34:20;4.93;;;0.98;;
74849;SDS011;63397;47.480;19.238;2023-01-05T18:37:22;4.28;;;1.00;;
74849;SDS011;63397;47.480;19.238;2023-01-05T18:40:25;3.37;;;1.03;;
74849;SDS011;63397;47.480;19.238;2023-01-05T18:43:28;7.05;;;1.40;;
74849;SDS011;63397;47.480;19.238;2023-01-05T18:46:32;3.58;;;1.00;;
74849;SDS011;63397;47.480;19.238;2023-01-05T18:49:35;4.35;;;0.90;;
74849;SDS011;63397;47.480;19.238;2023-01-05T18:52:37;4.68;;;0.95;;
74849;SDS011;63397;47.480;19.238;2023-01-05T18:55:40;2.83;;;0.70;;
74849;SDS011;63397;47.480;19.238;2023-01-05T18:58:42;4.50;;;0.88;;
74849;SDS011;63397;47.480;19.238;2023-01-05T19:01:45;3.55;;;0.90;;
74849;SDS011;63397;47.480;19.238;2023-01-05T19:04:47;4.30;;;0.60;;
74849;SDS011;63397;47.480;19.238;2023-01-05T19:07:50;2.83;;;0.70;;
74849;SDS011;63397;47.480;19.238;2023-01-05T19:10:54;4.00;;;1.00;;
74849;SDS011;63397;47.480;19.238;2023-01-05T19:13:57;5.88;;;1.17;;
74849;SDS011;63397;47.480;19.238;2023-01-05T19:17:00;7.47;;;1.00;;
74849;SDS011;63397;47.480;19.238;2023-01-05T19:20:02;3.38;;;0.80;;
74849;SDS011;63397;47.480;19.238;2023-01-05T19:23:05;4.22;;;0.77;;
74849;SDS011;63397;47.480;19.238;2023-01-05T19:26:07;2.07;;;0.50;;
74849;SDS011;63397;47.480;19.238;2023-01-05T19:29:10;4.95;;;1.30;;
74849;SDS011;63397;47.480;19.238;2023-01-05T19:32:13;4.72;;;0.82;;
74849;SDS011;63397;47.480;19.238;2023-01-05T19:35:15;4.82;;;0.82;;
74849;SDS011;63397;47.480;19.238;2023-01-05T19:38:17;6.10;;;1.10;;
74849;SDS011;63397;47.480;19.238;2023-01-05T19:41:21;3.53;;;0.80;;
74849;SDS011;63397;47.480;19.238;2023-01-05T19:44:24;3.88;;;0.93;;
74849;SDS011;63397;47.480;19.238;2023-01-05T19:47:26;2.25;;;0.50;;
74849;SDS011;63397;47.480;19.238;2023-01-05T19:50:28;5.40;;;0.82;;
74849;SDS011;63397;47.480;19.238;2023-01-05T19:53:31;3.75;;;0.90;;
74849;SDS011;63397;47.480;19.238;2023-01-05T19:56:34;4.53;;;0.70;;
74849;SDS011;63397;47.480;19.238;2023-01-05T19:59:37;3.20;;;0.65;;
74849;SDS011;63397;47.480;19.238;2023-01-05T20:02:40;3.92;;;0.80;;
74849;SDS011;63397;47.480;19.238;2023-01-05T20:05:43;4.65;;;0.75;;
74849;SDS011;63397;47.480;19.238;2023-01-05T20:08:46;5.95;;;0.90;;
74849;SDS011;63397;47.480;19.238;2023-01-05T20:11:57;2.77;;;0.70;;
74849;SDS011;63397;47.480;19.238;2023-01-05T20:15:14;3.42;;;0.70;;
74849;SDS011;63397;47.480;19.238;2023-01-05T20:18:16;4.22;;;0.80;;
74849;SDS011;63397;47.480;19.238;2023-01-05T20:21:19;2.45;;;0.40;;
74849;SDS011;63397;47.480;19.238;2023-01-05T20:24:22;2.58;;;0.70;;
74849;SDS011;63397;47.480;19.238;2023-01-05T20:27:25;2.40;;;0.63;;
74849;SDS011;63397;47.480;19.238;2023-01-05T20:30:27;2.83;;;0.68;;
74849;SDS011;63397;47.480;19.238;2023-01-05T20:33:29;2.88;;;0.80;;
74849;SDS011;63397;47.480;19.238;2023-01-05T20:36:32;3.47;;;0.80;;
74849;SDS011;63397;47.480;19.238;2023-01-05T20:39:35;3.00;;;0.70;;
74849;SDS011;63397;47.480;19.238;2023-01-05T20:42:38;3.60;;;0.67;;
74849;SDS011;63397;47.480;19.238;2023-01-05T20:45:40;2.45;;;0.50;;